aviador You're here:

LFOC Decoded Metar

CHATEAUDUN in FRANCE
Report Time2018-07-18 20:00:00
UTC Time2018-07-18 20:06:49
Flight Rules vfr VFR
Wind100° at 05 kt
W.Decomp.*RWY 10: 5.0 kt HW 0.1 kt RCW
W.Rank100° ranks 33
Current wind is below 100° avg. (5.9)
Visibility9999 m
Phenomena:N/A
Clouds:N/A
Expected CloudBase > 4,400 ft AGL from Temp-Dew spread
CeilingNone
Temp23°C (ISA +9)
Dew Point12°C (50% RH)
AAT21.8°C
QNH1016 hPa
Density Alt1,532 ft
Elevation417 ft
Report Wrong Elevation
Raw Report
METAR LFOC 182000Z AUTO 10005KT CAVOK 23/12 Q1016=

Extra information for LFOC:More info

Metar Taf Metar & Taf Last 4 Metars F.Rules Stats Wind Profile Meteogram Temp Stats Airport Information Weather charts Add Link Nearby VenuesMetar ALERT Operation Metar Decoded Social comments